Terminal Aerodrome Forecast
Issued by NWS Grand Rapids, MI

Home | Current Version | Previous Version | Text Only | Print | Product List | Glossary On
Versions: 1 2 3 4 5 6 7 8 9 10 11 12 13 14 15 16 17
000
FTUS43 KGRR 050540
TAFGRR
TAF
KGRR 050540Z 0506/0606 VRB03KT P6SM SKC
     FM050700 VRB03KT 4SM BR SKC
     FM051100 17003KT 2SM BR SKC
     FM051300 18004KT 4SM BR SKC
     FM051400 20006KT P6SM SKC=

USA.gov is the U.S. government's official web portal to all federal, state and local government web resources and services.